Time;durP1;ratioP1;P1;durP2;ratioP2;P2;SDS_P1;SDS_P2;PMS_P1;PMS_P2;Temp;Humidity;BMP_temperature;BMP_pressure;BME280_temperature;BME280_humidity;BME280_pressure;Samples;Min_cycle;Max_cycle;Signal;HPM_P1;HPM_P2
2021/09/25 00:02:11;;;;;;;0.90;0.90;;;21.30;99.90;;;21.51;54.84;101228.69;4969785;28;101673;-48
2021/09/25 00:04:37;;;;;;;1.17;1.10;;;21.30;99.90;;;21.52;54.78;101219.66;4969558;27;98300;-45
2021/09/25 00:07:03;;;;;;;1.10;1.00;;;21.30;99.90;;;21.53;54.68;101224.91;4966320;28;99824;-50
2021/09/25 00:09:29;;;;;;;0.90;0.90;;;21.30;99.90;;;21.54;54.56;101220.41;4965464;27;98086;-50
2021/09/25 00:11:55;;;;;;;1.13;1.03;;;21.40;99.90;;;21.54;54.73;101229.31;4972611;28;98461;-45
2021/09/25 00:14:21;;;;;;;1.00;0.83;;;21.40;99.90;;;21.52;54.82;101231.25;4968823;27;100367;-50
2021/09/25 00:16:47;;;;;;;1.30;1.20;;;21.30;99.90;;;21.51;54.97;101239.41;4961878;28;100142;-46
2021/09/25 00:19:13;;;;;;;1.00;1.00;;;21.30;99.90;;;21.50;54.91;101233.19;4972368;28;99703;-45
2021/09/25 00:21:39;;;;;;;1.23;0.90;;;21.30;99.90;;;21.50;54.91;101227.81;4968159;27;99301;-47
2021/09/25 00:24:06;;;;;;;1.00;1.00;;;21.30;99.90;;;21.47;54.93;101217.31;4969718;28;99339;-47
2021/09/25 00:26:31;;;;;;;1.13;1.03;;;21.30;99.90;;;21.48;54.94;101220.84;4964055;27;98889;-48
2021/09/25 00:28:57;;;;;;;1.30;1.20;;;21.30;99.90;;;21.46;54.90;101218.28;4967924;28;97970;-47
2021/09/25 00:31:23;;;;;;;0.90;0.90;;;21.30;99.90;;;21.45;54.89;101219.25;4968258;27;102615;-49
2021/09/25 00:33:49;;;;;;;1.00;0.97;;;21.20;99.90;;;21.46;54.93;101220.97;4972673;27;99312;-46
2021/09/25 00:36:15;;;;;;;1.07;0.97;;;21.20;99.90;;;21.45;54.97;101219.25;4954191;28;98681;-51
2021/09/25 00:38:40;;;;;;;0.90;0.90;;;21.20;99.90;;;21.42;54.94;101224.00;4968496;27;101055;-51
2021/09/25 00:41:07;;;;;;;1.60;1.00;;;21.20;99.90;;;21.41;55.03;101228.50;4972400;27;96766;-50
2021/09/25 00:43:34;;;;;;;1.00;0.90;;;21.20;99.90;;;21.37;55.08;101227.84;4981320;27;98928;-46
2021/09/25 00:46:00;;;;;;;1.03;0.93;;;21.10;99.90;;;21.35;55.20;101223.56;4973842;27;98393;-44
2021/09/25 00:48:25;;;;;;;1.07;0.97;;;21.10;99.90;;;21.34;55.21;101225.38;4967032;27;101307;-46
2021/09/25 00:50:51;;;;;;;1.07;0.80;;;21.10;99.90;;;21.35;55.23;101228.94;4968077;28;98364;-48
2021/09/25 00:53:17;;;;;;;1.10;1.00;;;21.10;99.90;;;21.34;55.26;101227.22;4964896;27;98710;-52
2021/09/25 00:55:43;;;;;;;1.00;0.83;;;21.10;99.90;;;21.32;55.20;101226.47;4966608;27;99837;-50
2021/09/25 00:58:10;;;;;;;1.10;1.00;;;21.10;99.90;;;21.30;55.22;101234.63;4983390;27;99137;-45
2021/09/25 01:00:36;;;;;;;1.23;1.13;;;21.10;99.90;;;21.29;55.32;101230.25;4948547;27;97668;-46
2021/09/25 01:03:03;;;;;;;1.70;1.30;;;21.00;99.90;;;21.29;55.26;101240.13;4985990;27;96973;-52
2021/09/25 01:05:29;;;;;;;1.20;1.10;;;21.10;99.90;;;21.31;55.34;101230.13;4963685;28;101101;-48
2021/09/25 01:07:56;;;;;;;1.27;1.10;;;21.10;99.90;;;21.28;55.13;101230.34;4968705;28;98201;-49
2021/09/25 01:10:22;;;;;;;1.00;1.00;;;21.00;99.90;;;21.28;55.29;101235.72;4966611;27;101199;-46
2021/09/25 01:12:48;;;;;;;1.40;1.20;;;21.00;99.90;;;21.28;55.24;101228.53;4954210;28;97619;-48
2021/09/25 01:15:15;;;;;;;1.57;1.00;;;21.00;99.90;;;21.30;55.17;101225.72;4966803;28;98997;-47
2021/09/25 01:17:42;;;;;;;1.53;1.00;;;21.10;99.90;;;21.31;55.20;101227.44;4965843;28;103696;-45
2021/09/25 01:20:11;;;;;;;1.23;1.10;;;21.10;99.90;;;21.31;55.29;101230.13;4973836;27;97678;-45
2021/09/25 01:22:37;;;;;;;0.93;0.80;;;21.10;99.90;;;21.31;55.27;101228.31;4963174;27;97482;-50
2021/09/25 01:25:05;;;;;;;2.77;1.40;;;21.10;99.90;;;21.32;55.28;101234.53;4964636;28;99694;-47
2021/09/25 01:27:31;;;;;;;1.03;0.90;;;21.10;99.90;;;21.33;55.32;101233.56;4966108;27;98742;-46
2021/09/25 01:29:57;;;;;;;1.53;1.00;;;21.10;99.90;;;21.34;55.27;101235.28;4969752;27;97897;-46
2021/09/25 01:32:23;;;;;;;1.00;0.90;;;21.10;99.90;;;21.35;55.14;101234.31;4967669;27;98900;-48
2021/09/25 01:34:49;;;;;;;0.90;0.90;;;21.10;99.90;;;21.34;55.25;101232.59;4965257;28;98277;-48
2021/09/25 01:37:15;;;;;;;2.17;1.10;;;21.10;99.90;;;21.34;55.14;101222.72;4984208;27;99324;-53
2021/09/25 01:39:40;;;;;;;2.00;1.30;;;21.10;99.90;;;21.32;55.21;101223.78;4960131;28;99220;-46
2021/09/25 01:42:06;;;;;;;1.17;1.07;;;21.10;99.90;;;21.31;55.25;101216.72;4973022;27;103535;-47
2021/09/25 01:44:32;;;;;;;1.10;1.00;;;21.10;99.90;;;21.33;55.15;101217.47;4979287;27;100443;-44
2021/09/25 01:46:59;;;;;;;1.40;1.30;;;21.10;99.90;;;21.35;55.13;101228.94;4973281;27;98506;-47
2021/09/25 01:49:26;;;;;;;1.60;1.20;;;21.10;99.90;;;21.35;55.08;101223.56;4967116;27;98817;-50
2021/09/25 01:51:53;;;;;;;1.20;1.10;;;21.20;99.90;;;21.35;55.17;101223.56;4982344;27;97598;-47
2021/09/25 01:54:19;;;;;;;1.40;1.13;;;21.10;99.90;;;21.33;55.19;101225.50;4963148;27;102257;-50
2021/09/25 01:56:46;;;;;;;0.90;0.90;;;21.10;99.90;;;21.31;55.32;101222.09;4983921;27;100336;-53
2021/09/25 01:59:13;;;;;;;1.23;1.10;;;21.10;99.90;;;21.33;55.09;101222.81;4971144;27;99813;-45
2021/09/25 02:01:39;;;;;;;1.30;1.10;;;21.10;99.90;;;21.26;55.38;101226.91;4964713;27;97130;-48
2021/09/25 02:04:06;;;;;;;1.00;1.00;;;21.00;99.90;;;21.26;55.46;101229.56;4966372;28;98886;-46
2021/09/25 02:06:32;;;;;;;1.47;1.10;;;21.00;99.90;;;21.28;55.30;101238.41;4967305;27;98490;-47
2021/09/25 02:08:58;;;;;;;0.87;0.87;;;21.00;99.90;;;21.31;55.13;101228.31;4971034;27;98523;-46
2021/09/25 02:11:25;;;;;;;1.20;1.10;;;21.10;99.90;;;21.31;55.16;101248.91;4968403;27;97695;-46
2021/09/25 02:13:51;;;;;;;1.20;1.07;;;21.10;99.90;;;21.29;55.29;101245.47;4967166;28;100559;-48
2021/09/25 02:16:17;;;;;;;1.37;1.27;;;21.00;99.90;;;21.21;55.43;101247.81;4961743;28;98443;-51
2021/09/25 02:18:43;;;;;;;1.13;1.00;;;20.90;99.90;;;21.19;55.50;101247.06;4974393;27;98783;-47
2021/09/25 02:21:10;;;;;;;1.60;1.33;;;20.90;99.90;;;21.17;55.63;101246.31;4969107;28;101824;-47
2021/09/25 02:23:36;;;;;;;1.27;1.00;;;20.90;99.90;;;21.19;55.72;101244.38;4967775;27;98718;-47
2021/09/25 02:26:04;;;;;;;1.13;1.03;;;20.90;99.90;;;21.21;55.58;101248.66;4961917;28;98575;-49
2021/09/25 02:28:30;;;;;;;1.30;1.10;;;21.00;99.90;;;21.23;55.56;101245.88;4968032;28;99658;-47
2021/09/25 02:30:57;;;;;;;1.57;1.00;;;21.00;99.90;;;21.25;55.49;101246.66;4969386;27;97453;-44
2021/09/25 02:33:24;;;;;;;1.30;1.20;;;21.00;99.90;;;21.26;55.42;101243.00;4967284;27;100380;-46
2021/09/25 02:35:50;;;;;;;1.23;1.13;;;21.00;99.90;;;21.29;55.13;101240.13;4967377;27;99508;-47
2021/09/25 02:38:17;;;;;;;1.23;1.10;;;21.10;99.90;;;21.26;55.24;101240.31;4982408;27;97412;-50
2021/09/25 02:40:44;;;;;;;1.20;1.10;;;21.00;99.90;;;21.17;55.33;101235.59;4982937;27;99642;-46
2021/09/25 02:43:10;;;;;;;1.37;1.27;;;20.90;99.90;;;21.12;55.79;101232.34;4965849;27;100201;-47
2021/09/25 02:45:36;;;;;;;2.17;0.87;;;20.80;99.90;;;21.09;55.90;101234.28;4965670;27;97880;-48
2021/09/25 02:48:03;;;;;;;1.60;1.20;;;20.80;99.90;;;21.08;55.80;101232.56;4972959;27;98625;-47
2021/09/25 02:50:30;;;;;;;1.47;1.33;;;20.80;99.90;;;21.07;55.75;101241.59;4969832;28;97520;-50
2021/09/25 02:52:56;;;;;;;1.40;1.10;;;20.80;99.90;;;21.07;55.88;101236.22;4969297;28;99617;-50
2021/09/25 02:55:22;;;;;;;1.40;1.30;;;20.80;99.90;;;21.09;55.83;101239.66;4972961;27;98826;-50
2021/09/25 02:57:48;;;;;;;1.83;1.10;;;20.80;99.90;;;21.10;55.88;101236.00;4968898;27;98575;-52
2021/09/25 03:00:19;;;;;;;1.53;1.30;;;20.90;99.90;;;21.12;55.63;101243.06;4975660;28;98939;-47
2021/09/25 03:02:45;;;;;;;1.20;1.10;;;20.80;99.90;;;21.08;55.88;101235.25;4981859;27;105895;-51
2021/09/25 03:05:12;;;;;;;1.33;0.90;;;20.80;99.90;;;21.09;55.91;101239.66;4969740;28;99890;-47
2021/09/25 03:07:38;;;;;;;1.20;1.10;;;20.80;99.90;;;21.11;55.74;101239.53;4964603;27;96896;-48
2021/09/25 03:10:05;;;;;;;1.30;1.20;;;20.80;99.90;;;21.13;55.89;101228.72;4995458;27;99896;-48
2021/09/25 03:12:31;;;;;;;1.43;1.20;;;20.90;99.90;;;21.18;55.68;101237.31;4986696;28;98431;-47
2021/09/25 03:14:57;;;;;;;1.20;1.10;;;20.90;99.90;;;21.23;55.46;101229.78;4991572;28;98035;-46
2021/09/25 03:17:23;;;;;;;1.67;1.00;;;21.00;99.90;;;21.27;55.43;101231.31;4988256;27;96866;-47
2021/09/25 03:19:49;;;;;;;1.50;1.40;;;21.10;99.90;;;21.30;55.17;101228.41;5005599;27;97441;-47
2021/09/25 03:22:15;;;;;;;1.43;1.33;;;21.10;99.90;;;21.30;55.19;101229.28;5007443;27;103757;-47
2021/09/25 03:24:42;;;;;;;1.40;1.30;;;21.20;99.90;;;21.31;55.20;101222.09;4986062;28;102636;-46
2021/09/25 03:27:09;;;;;;;1.10;1.00;;;21.10;99.90;;;21.30;55.11;101233.78;4992363;28;96863;-44
2021/09/25 03:29:35;;;;;;;1.93;1.20;;;21.10;99.90;;;21.30;55.07;101233.78;4984816;28;98214;-46
2021/09/25 03:32:01;;;;;;;1.40;1.10;;;21.10;99.90;;;21.29;55.08;101229.38;4990713;28;100572;-47
2021/09/25 03:34:26;;;;;;;1.53;1.20;;;21.10;99.90;;;21.29;55.18;101218.66;4988380;28;97556;-47
2021/09/25 03:36:52;;;;;;;1.47;1.13;;;21.10;99.90;;;21.31;55.19;101222.09;4993169;28;96962;-45
2021/09/25 03:39:18;;;;;;;1.20;1.10;;;21.10;99.90;;;21.33;54.99;101214.78;4989813;28;108548;-45
2021/09/25 03:41:44;;;;;;;0.97;0.97;;;21.10;99.90;;;21.34;54.89;101216.47;4992776;27;97868;-44
2021/09/25 03:44:10;;;;;;;1.43;1.20;;;21.20;99.90;;;21.32;54.94;101221.97;4996194;27;98365;-44
2021/09/25 03:46:37;;;;;;;1.20;1.10;;;21.10;99.90;;;21.28;54.81;101222.31;4989307;28;98074;-45
2021/09/25 03:49:04;;;;;;;1.37;1.07;;;21.10;99.90;;;21.24;55.28;101226.13;4995617;28;97287;-46
2021/09/25 03:51:30;;;;;;;1.20;1.10;;;21.00;99.90;;;21.25;55.13;101225.19;4987660;27;99218;-44
2021/09/25 03:53:56;;;;;;;1.43;1.33;;;21.00;99.90;;;21.25;55.18;101227.88;4994089;27;99023;-48
2021/09/25 03:56:22;;;;;;;1.23;1.10;;;21.00;99.90;;;21.26;55.31;101226.91;4983504;28;97502;-49
2021/09/25 03:58:47;;;;;;;1.30;1.20;;;21.00;99.90;;;21.23;55.27;101224.41;4994580;28;97177;-45
2021/09/25 04:01:13;;;;;;;1.70;1.27;;;21.00;99.90;;;21.21;55.39;101220.97;4989345;28;99242;-47
2021/09/25 04:03:39;;;;;;;1.00;0.97;;;21.00;99.90;;;21.22;55.31;101220.00;4987328;27;97018;-47
2021/09/25 04:06:05;;;;;;;0.97;0.97;;;21.00;99.90;;;21.24;55.21;101216.25;4990475;28;96967;-48
2021/09/25 04:08:32;;;;;;;1.20;1.13;;;21.00;99.90;;;21.28;55.29;101214.25;4989042;27;97502;-44
2021/09/25 04:10:58;;;;;;;1.37;1.10;;;21.10;99.90;;;21.30;55.14;101218.53;4992204;28;98807;-47
2021/09/25 04:13:24;;;;;;;1.20;1.10;;;21.10;99.90;;;21.30;55.19;101215.00;4989087;27;97412;-44
2021/09/25 04:15:50;;;;;;;1.20;1.10;;;21.10;99.90;;;21.30;55.06;101220.38;4997604;28;97792;-47
2021/09/25 04:18:16;;;;;;;1.30;1.20;;;21.10;99.90;;;21.29;55.13;101214.16;4986954;28;97956;-48
2021/09/25 04:20:42;;;;;;;2.07;1.23;;;21.10;99.90;;;21.32;55.13;101219.28;4986793;28;102649;-49
2021/09/25 04:23:08;;;;;;;1.30;1.20;;;21.10;99.90;;;21.33;54.96;101220.13;4991390;28;110335;-44
2021/09/25 04:25:34;;;;;;;1.57;1.30;;;21.20;99.90;;;21.34;54.93;101221.84;4988025;28;97412;-47
2021/09/25 04:28:06;;;;;;;4.53;1.30;;;21.20;99.90;;;21.36;54.97;101230.66;4990929;28;103440;-44
2021/09/25 04:30:36;;;;;;;1.60;1.30;;;21.20;99.90;;;21.35;54.87;101223.56;5001017;27;99461;-47
2021/09/25 04:33:03;;;;;;;1.30;1.00;;;21.20;99.90;;;21.35;54.92;101219.06;5007081;27;99326;-46
2021/09/25 04:35:29;;;;;;;1.27;1.10;;;21.20;99.90;;;21.35;54.86;101218.19;4972157;27;99326;-45
2021/09/25 04:37:56;;;;;;;1.20;1.10;;;21.20;99.90;;;21.34;54.90;101213.81;4993099;28;101475;-50
2021/09/25 04:40:34;;;;;;;1.27;1.17;;;21.10;99.90;;;21.39;54.74;101214.31;4985188;27;100147;-48
2021/09/25 04:43:02;;;;;;;1.30;1.20;;;21.20;99.90;;;21.41;54.79;101209.72;4983436;28;97139;-48
2021/09/25 04:45:28;;;;;;;1.23;1.13;;;21.30;99.90;;;21.43;54.68;101210.47;4985900;27;97499;-45
2021/09/25 04:47:54;;;;;;;1.30;1.20;;;21.30;99.90;;;21.46;54.65;101220.97;4991256;28;97113;-49
2021/09/25 04:50:21;;;;;;;1.30;1.20;;;21.30;99.90;;;21.47;54.61;101216.47;4984468;27;99124;-48
2021/09/25 04:52:47;;;;;;;1.30;1.20;;;21.30;99.90;;;21.49;54.53;101220.75;4990682;27;97157;-49
2021/09/25 04:55:13;;;;;;;1.20;1.10;;;21.40;99.90;;;21.51;54.43;101218.81;4989025;28;97360;-45
2021/09/25 04:57:40;;;;;;;2.10;1.10;;;21.40;99.90;;;21.54;54.34;101218.56;4985204;28;97367;-44
2021/09/25 05:00:08;;;;;;;1.30;1.20;;;21.40;99.90;;;21.56;54.25;101216.66;4991562;27;97677;-44
2021/09/25 05:02:33;;;;;;;1.50;1.40;;;21.50;99.90;;;21.56;54.24;101210.44;4985715;28;98181;-46
2021/09/25 05:04:59;;;;;;;1.27;1.13;;;21.50;99.90;;;21.55;54.44;101220.28;4990413;28;97920;-44
2021/09/25 05:07:25;;;;;;;1.50;1.17;;;21.50;99.90;;;21.56;54.35;101224.72;4985762;27;97034;-47
2021/09/25 05:09:51;;;;;;;1.10;1.00;;;21.50;99.90;;;21.57;54.20;101229.13;4989846;27;99436;-48
2021/09/25 05:12:17;;;;;;;1.20;1.10;;;21.50;99.90;;;21.58;54.14;101220.09;4966746;28;125357;-46
2021/09/25 05:14:42;;;;;;;1.30;1.20;;;21.50;99.90;;;21.58;54.11;101219.22;4991619;28;104120;-46
2021/09/25 05:17:09;;;;;;;1.30;1.20;;;21.50;99.90;;;21.57;54.22;101222.88;4987011;28;112341;-48
2021/09/25 05:19:35;;;;;;;3.17;1.30;;;21.50;99.90;;;21.57;54.25;101218.38;4988640;28;97863;-46
2021/09/25 05:22:01;;;;;;;2.00;1.80;;;21.40;99.90;;;21.56;54.06;101222.03;4987396;27;97326;-44
2021/09/25 05:24:27;;;;;;;1.53;1.10;;;21.40;99.90;;;21.57;54.33;101217.53;4984106;28;97351;-44
2021/09/25 05:26:55;;;;;;;1.57;1.47;;;21.40;99.90;;;21.57;54.07;101221.06;4992183;28;98733;-45
2021/09/25 05:29:22;;;;;;;1.17;1.10;;;21.50;99.90;;;21.57;54.21;101218.38;4968455;28;100160;-47
2021/09/25 05:31:47;;;;;;;1.40;1.30;;;21.50;99.90;;;21.58;54.09;101213.88;4992708;28;97623;-44
2021/09/25 05:34:13;;;;;;;2.07;1.23;;;21.50;99.90;;;21.58;53.97;101220.09;4988503;28;97139;-47
2021/09/25 05:36:39;;;;;;;1.63;1.53;;;21.50;99.90;;;21.57;53.93;101221.06;4987724;28;97530;-43
2021/09/25 05:39:06;;;;;;;1.17;1.07;;;21.50;99.90;;;21.58;54.01;101227.28;4997009;27;98916;-46
2021/09/25 05:41:32;;;;;;;1.30;1.20;;;21.50;99.90;;;21.56;54.05;101226.53;4985948;28;99229;-44
2021/09/25 05:43:58;;;;;;;2.40;1.53;;;21.40;99.90;;;21.55;54.10;101225.66;5005317;27;96941;-45
2021/09/25 05:46:24;;;;;;;1.23;1.13;;;21.50;99.90;;;21.52;54.20;101235.75;4982197;28;97456;-46
2021/09/25 05:48:52;;;;;;;2.50;2.03;;;21.40;99.90;;;21.45;53.99;101234.50;4988128;28;100561;-49
2021/09/25 05:51:19;;;;;;;1.43;1.30;;;21.30;99.90;;;21.44;54.41;101233.66;4983681;28;99652;-45
2021/09/25 05:53:46;;;;;;;1.43;1.33;;;21.20;99.90;;;21.44;54.52;101239.00;4987832;28;104026;-45
2021/09/25 05:56:13;;;;;;;1.50;1.20;;;21.20;99.90;;;21.42;54.56;101246.31;4987397;28;97092;-46
2021/09/25 05:58:38;;;;;;;1.57;1.30;;;21.20;99.90;;;21.45;54.41;101248.78;4984484;27;97333;-45
2021/09/25 06:01:04;;;;;;;1.90;1.40;;;21.30;99.90;;;21.46;54.43;101247.81;4987524;28;98215;-48
2021/09/25 06:03:30;;;;;;;1.37;1.27;;;21.30;99.90;;;21.45;54.44;101240.72;4984402;28;103006;-45
2021/09/25 06:05:56;;;;;;;2.43;1.50;;;21.30;99.90;;;21.44;54.51;101248.91;5006143;27;103071;-47
2021/09/25 06:08:22;;;;;;;1.30;1.20;;;21.30;99.90;;;21.43;54.48;101244.50;4987407;28;99481;-48
2021/09/25 06:10:48;;;;;;;1.30;1.20;;;21.30;99.90;;;21.38;54.54;101250.16;4987485;28;125769;-46
2021/09/25 06:13:14;;;;;;;1.40;1.30;;;21.20;99.90;;;21.35;54.66;101250.41;4987661;28;97511;-45
2021/09/25 06:15:40;;;;;;;1.47;1.37;;;21.10;99.90;;;21.35;54.67;101250.41;4988293;28;97147;-47
2021/09/25 06:18:06;;;;;;;1.47;1.30;;;21.10;99.90;;;21.37;54.78;101251.16;4988921;28;97361;-45
2021/09/25 06:20:32;;;;;;;1.43;1.33;;;21.20;99.90;;;21.41;54.68;101239.25;4984923;28;97923;-45
2021/09/25 06:22:58;;;;;;;1.40;1.30;;;21.20;99.90;;;21.45;54.52;101234.50;4987323;28;97187;-46
2021/09/25 06:25:24;;;;;;;2.23;1.30;;;21.30;99.90;;;21.48;54.54;101237.81;4988727;27;97051;-44
2021/09/25 06:27:50;;;;;;;1.87;1.40;;;21.40;99.90;;;21.52;54.25;101241.13;4987733;28;97945;-46
2021/09/25 06:30:16;;;;;;;1.87;1.37;;;21.40;99.90;;;21.54;54.31;101240.03;4987654;27;97185;-50
2021/09/25 06:32:42;;;;;;;1.20;1.10;;;21.50;99.90;;;21.56;54.23;101240.81;4986888;27;97404;-45
2021/09/25 06:35:10;;;;;;;1.40;1.30;;;21.50;99.90;;;21.56;54.25;101232.78;4990113;27;98011;-44
2021/09/25 06:37:37;;;;;;;1.50;1.40;;;21.50;99.90;;;21.59;54.33;101239.72;4981602;28;99243;-45
2021/09/25 06:40:07;;;;;;;3.53;2.97;;;21.50;99.90;;;21.58;54.10;101236.19;4987322;28;98726;-45
2021/09/25 06:42:33;;;;;;;1.80;1.60;;;21.50;99.90;;;21.61;54.08;101237.78;4983752;28;97462;-44
2021/09/25 06:44:58;;;;;;;1.80;1.30;;;21.50;99.90;;;21.60;54.04;101238.75;4988551;28;96792;-46
2021/09/25 06:47:24;;;;;;;1.30;1.20;;;21.60;99.90;;;21.62;54.03;101243.03;4985677;27;101371;-45
2021/09/25 06:49:50;;;;;;;1.40;1.30;;;21.60;99.90;;;21.64;53.93;101246.47;4986955;28;98616;-49
2021/09/25 06:52:16;;;;;;;2.00;1.80;;;21.60;99.90;;;21.62;54.09;101245.72;4985877;28;107923;-48
2021/09/25 06:54:42;;;;;;;1.90;1.50;;;21.60;99.90;;;21.63;53.98;101244.75;4985331;28;97999;-45
2021/09/25 06:57:10;;;;;;;3.50;3.20;;;21.60;99.90;;;21.59;53.87;101245.97;4988942;28;97619;-45
2021/09/25 06:59:37;;;;;;;1.80;1.53;;;21.50;99.90;;;21.57;53.81;101234.47;4982659;27;98472;-44
2021/09/25 07:02:03;;;;;;;3.43;2.17;;;21.50;99.90;;;21.56;53.85;101245.34;4988295;28;96794;-44
2021/09/25 07:04:30;;;;;;;1.37;1.27;;;21.40;99.90;;;21.54;54.37;101250.78;4984030;28;97478;-45
2021/09/25 07:06:56;;;;;;;1.73;1.63;;;21.40;99.90;;;21.55;54.25;101252.50;4990630;28;99492;-46
2021/09/25 07:09:21;;;;;;;1.40;1.30;;;21.40;99.90;;;21.58;54.22;101256.81;4982018;27;98371;-43
2021/09/25 07:11:48;;;;;;;2.53;2.33;;;21.50;99.90;;;21.53;53.22;101249.06;4984806;28;97338;-44
2021/09/25 07:14:14;;;;;;;1.40;1.30;;;21.50;99.90;;;21.50;54.08;101249.28;4990409;27;97253;-47
2021/09/25 07:16:39;;;;;;;2.20;2.00;;;21.40;99.90;;;21.47;54.24;101254.03;4984230;27;97245;-46
2021/09/25 07:19:05;;;;;;;3.97;3.50;;;21.30;99.90;;;21.43;53.20;101266.81;4984122;28;114527;-45
2021/09/25 07:21:32;;;;;;;2.07;1.87;;;21.20;99.90;;;21.43;54.39;101261.47;4982953;28;97590;-43
2021/09/25 07:23:58;;;;;;;3.73;3.30;;;21.30;99.90;;;21.37;53.90;101261.88;4992262;28;97593;-45
2021/09/25 07:26:24;;;;;;;1.57;1.47;;;21.20;99.90;;;21.35;54.63;101263.81;4986564;28;98598;-43
2021/09/25 07:28:50;;;;;;;1.87;1.50;;;21.10;99.90;;;21.36;54.69;101257.47;4990879;28;97066;-44
2021/09/25 07:31:16;;;;;;;1.90;1.73;;;21.20;99.90;;;21.41;54.77;101266.06;4989662;27;97029;-49
2021/09/25 07:33:42;;;;;;;5.07;4.57;;;21.30;99.90;;;21.32;54.58;101266.72;4979237;28;96990;-48
2021/09/25 07:36:08;;;;;;;2.00;1.80;;;21.10;99.90;;;21.29;55.06;101266.94;4987099;28;98775;-49
2021/09/25 07:38:35;;;;;;;1.67;1.50;;;21.00;99.90;;;21.33;54.93;101263.06;4989184;27;98351;-45
2021/09/25 07:41:01;;;;;;;1.70;1.60;;;21.20;99.90;;;21.40;54.74;101277.75;4992813;28;97463;-46
2021/09/25 07:43:27;;;;;;;1.40;1.30;;;21.30;99.90;;;21.45;54.58;101277.44;4987424;28;97604;-46
2021/09/25 07:45:55;;;;;;;4.37;3.27;;;21.30;99.90;;;21.47;54.30;101276.38;4991430;28;100335;-44
2021/09/25 07:48:21;;;;;;;5.23;4.60;;;21.40;99.90;;;21.40;54.07;101280.44;4987641;28;97138;-50
2021/09/25 07:50:47;;;;;;;3.30;2.57;;;21.20;99.90;;;21.28;54.92;101282.19;4993198;28;98267;-45
2021/09/25 07:53:14;;;;;;;6.23;5.33;;;21.00;99.90;;;21.21;54.50;101290.72;4990151;28;97616;-48
2021/09/25 07:55:40;;;;;;;1.67;1.57;;;21.00;99.90;;;21.15;55.55;101288.50;4985719;28;97667;-44
2021/09/25 07:58:08;;;;;;;2.17;1.97;;;20.80;99.90;;;21.10;55.60;101283.41;4988693;28;98647;-45
2021/09/25 08:00:35;;;;;;;8.03;5.10;;;20.80;99.90;;;21.11;55.56;101290.50;4983643;27;97296;-46
2021/09/25 08:03:02;;;;;;;2.00;1.83;;;20.80;99.90;;;21.08;55.54;101291.56;4988556;28;97218;-47
2021/09/25 08:05:27;;;;;;;7.10;5.73;;;20.80;99.90;;;21.01;55.47;101290.31;4997229;27;98547;-50
2021/09/25 08:07:54;;;;;;;7.70;7.00;;;20.70;99.90;;;20.96;55.95;101295.09;4993057;28;97382;-46
2021/09/25 08:10:20;;;;;;;9.03;7.50;;;20.60;99.90;;;20.98;55.70;101290.53;4998340;27;98387;-44
2021/09/25 08:12:47;;;;;;;2.67;1.90;;;20.70;99.90;;;21.03;55.98;101285.69;4989034;28;97971;-45
2021/09/25 08:15:14;;;;;;;10.50;7.23;;;20.80;99.90;;;20.99;55.71;101300.28;4991632;27;97416;-46
2021/09/25 08:17:41;;;;;;;6.60;5.53;;;20.70;99.90;;;21.04;55.75;101294.59;4985438;28;97384;-46
2021/09/25 08:20:10;;;;;;;2.73;2.13;;;20.80;99.90;;;21.10;55.72;101286.97;4993087;28;97607;-45
2021/09/25 08:22:36;;;;;;;6.37;5.67;;;20.90;99.90;;;21.04;56.17;101290.09;4988649;28;104218;-52
2021/09/25 08:25:03;;;;;;;3.73;3.33;;;20.90;99.90;;;21.05;55.92;101281.06;4974198;28;99664;-47
2021/09/25 08:27:29;;;;;;;7.07;5.47;;;20.80;99.90;;;21.14;55.62;101300.19;4989468;27;97421;-46
2021/09/25 08:29:55;;;;;;;5.37;4.83;;;20.90;99.90;;;21.14;55.34;101292.13;4991319;27;97360;-46
2021/09/25 08:32:21;;;;;;;8.40;6.77;;;21.00;99.90;;;21.10;55.62;101295.00;4982640;28;97625;-50
2021/09/25 08:34:46;;;;;;;1.60;1.50;;;21.00;99.90;;;21.12;55.71;101286.00;4987017;28;97043;-46
2021/09/25 08:37:13;;;;;;;7.17;5.43;;;20.90;99.90;;;21.15;55.89;101288.50;4989235;28;98985;-49
2021/09/25 08:39:39;;;;;;;5.93;4.50;;;21.00;99.90;;;21.17;55.58;101294.59;4988074;28;98163;-48
2021/09/25 08:42:05;;;;;;;6.63;5.27;;;21.00;99.90;;;21.25;55.35;101292.25;4988919;28;97493;-46
2021/09/25 08:44:31;;;;;;;3.47;3.03;;;21.10;99.90;;;21.27;55.12;101291.22;4989662;27;99234;-45
2021/09/25 08:46:57;;;;;;;8.63;6.20;;;21.10;99.90;;;21.34;55.03;101296.97;4989177;28;99260;-46
2021/09/25 08:49:23;;;;;;;3.07;2.53;;;21.20;99.90;;;21.37;54.87;101302.13;4988950;28;98075;-44
2021/09/25 08:51:49;;;;;;;4.97;4.40;;;21.20;99.90;;;21.39;54.89;101302.88;4989971;27;98308;-46
2021/09/25 08:54:15;;;;;;;7.07;5.53;;;21.30;99.90;;;21.35;54.79;101304.06;4991239;28;98989;-48
2021/09/25 08:56:41;;;;;;;7.83;4.90;;;21.20;99.90;;;21.30;55.24;101299.03;4986626;27;101235;-45
2021/09/25 08:59:07;;;;;;;8.43;6.67;;;21.20;99.90;;;21.30;55.17;101306.22;4989625;28;97815;-44
2021/09/25 09:01:34;;;;;;;6.03;4.57;;;21.20;99.90;;;21.36;55.00;101305.78;4985805;28;97122;-49
2021/09/25 09:04:00;;;;;;;3.17;2.10;;;21.20;99.90;;;21.35;55.01;101306.75;4990404;28;99302;-50
2021/09/25 09:06:34;;;;;;;2.20;2.00;;;21.30;99.90;;;21.42;54.80;101310.72;4989221;28;98727;-45
2021/09/25 09:09:05;;;;;;;7.57;5.10;;;21.30;99.90;;;21.46;54.83;101306.00;5003095;27;98719;-48
2021/09/25 09:11:31;;;;;;;4.33;3.57;;;21.40;99.90;;;21.49;54.56;101316.50;4987368;28;97862;-44
2021/09/25 09:14:01;;;;;;;5.67;4.20;;;21.40;99.90;;;21.52;54.60;101305.53;5004868;27;98659;-48
2021/09/25 09:16:28;;;;;;;1.80;1.70;;;21.50;99.90;;;21.50;54.59;101318.22;4988597;28;97665;-49
2021/09/25 09:18:54;;;;;;;2.43;2.23;;;21.40;99.90;;;21.54;54.47;101304.47;5006697;27;98453;-45
2021/09/25 09:21:30;;;;;;;6.90;5.17;;;21.40;99.90;;;21.57;54.35;101306.94;4989279;27;97675;-48
2021/09/25 09:24:03;;;;;;;2.87;2.43;;;21.50;99.90;;;21.60;54.41;101304.03;4992720;27;97411;-47
2021/09/25 09:26:36;;;;;;;3.70;2.63;;;21.50;99.90;;;21.64;54.20;101310.91;4988402;28;97023;-46
2021/09/25 09:29:06;;;;;;;7.23;5.63;;;21.60;99.90;;;21.59;54.03;101302.34;4987536;28;98396;-46
2021/09/25 09:31:34;;;;;;;7.63;6.07;;;21.60;99.90;;;21.56;53.84;101318.66;4990804;28;98753;-46
2021/09/25 09:34:03;;;;;;;2.17;1.97;;;21.50;99.90;;;21.59;54.34;101310.38;4989615;28;98742;-50
2021/09/25 09:36:38;;;;;;;7.70;6.33;;;21.50;99.90;;;21.62;54.29;101310.16;4984691;28;98239;-44
2021/09/25 09:39:21;;;;;;;6.70;6.00;;;21.50;99.90;;;21.57;53.65;101309.63;5005511;27;96981;-43
2021/09/25 09:41:51;;;;;;;5.67;5.00;;;21.50;99.90;;;21.60;54.23;101304.03;4988235;28;99664;-44
2021/09/25 09:44:20;;;;;;;5.97;3.40;;;21.50;99.90;;;21.62;54.21;101306.63;4988992;28;99490;-51
2021/09/25 09:46:49;;;;;;;6.27;4.63;;;21.60;99.90;;;21.61;54.03;101305.75;4989287;27;102490;-44
2021/09/25 09:49:24;;;;;;;3.87;3.37;;;21.50;99.90;;;21.66;54.18;101300.91;4990223;28;97284;-47
2021/09/25 09:52:02;;;;;;;4.70;3.53;;;21.60;99.90;;;21.71;53.97;101292.53;4999364;27;97702;-45
2021/09/25 09:54:30;;;;;;;2.97;2.23;;;21.70;99.90;;;21.74;53.88;101299.50;4987656;28;97730;-48
2021/09/25 09:56:58;;;;;;;2.20;1.90;;;21.70;99.90;;;21.76;53.94;101300.25;4989920;27;98431;-45
2021/09/25 09:59:25;;;;;;;8.70;5.73;;;21.70;99.90;;;21.77;53.69;101300.13;4985713;27;97258;-47
2021/09/25 10:01:52;;;;;;;3.33;2.50;;;21.80;99.90;;;21.72;53.97;101298.78;4985775;27;104234;-45
2021/09/25 10:04:19;;;;;;;2.47;2.27;;;21.70;99.90;;;21.72;54.15;101290.72;4967633;27;98745;-52
2021/09/25 10:06:46;;;;;;;3.20;2.77;;;21.70;99.90;;;21.74;54.06;101291.47;4967042;28;98181;-51
2021/09/25 10:09:18;;;;;;;3.10;2.20;;;21.70;99.90;;;21.80;53.96;101285.63;4970224;28;101075;-46